createdAt,value
2022-12-11T00:00:18.361Z,75.26
2022-12-11T00:03:15.380Z,75.22
2022-12-11T00:05:48.106Z,75.17
2022-12-11T00:08:19.653Z,75.29
2022-12-11T00:10:52.308Z,75.13
2022-12-11T00:13:23.827Z,75.34
2022-12-11T00:15:55.414Z,75.25
2022-12-11T00:18:26.911Z,75.24
2022-12-11T00:21:01.432Z,75.15
2022-12-11T00:23:33.531Z,75.23
2022-12-11T00:26:08.060Z,75.15
2022-12-11T00:28:39.616Z,75.23
2022-12-11T00:31:14.103Z,75.16
2022-12-11T00:33:48.980Z,75.21
2022-12-11T00:36:23.303Z,75.09
2022-12-11T00:38:55.569Z,75.12
2022-12-11T00:41:27.126Z,75.05
2022-12-11T00:43:58.908Z,74.99
2022-12-11T00:46:30.568Z,75.16
2022-12-11T00:49:02.090Z,75.05
2022-12-11T00:51:33.791Z,75.11
2022-12-11T00:54:06.274Z,74.98
2022-12-11T00:56:37.819Z,75.13
2022-12-11T00:59:09.569Z,75.27
2022-12-11T01:01:41.142Z,75.24
2022-12-11T01:04:12.755Z,75.13
2022-12-11T01:06:44.252Z,75.25
2022-12-11T01:09:33.389Z,75.17
2022-12-11T01:12:05.290Z,75.11
2022-12-11T01:14:36.922Z,75.15
2022-12-11T01:17:08.539Z,75.07
2022-12-11T01:19:40.155Z,75.05
2022-12-11T01:22:11.712Z,75.15
2022-12-11T01:24:43.452Z,75.07
2022-12-11T01:27:15.316Z,75.14
2022-12-11T01:29:46.784Z,75.12
2022-12-11T01:32:18.431Z,74.96
2022-12-11T01:34:49.912Z,74.96
2022-12-11T01:37:22.235Z,75.12
2022-12-11T01:39:53.937Z,74.99
2022-12-11T01:42:26.329Z,75.13
2022-12-11T01:45:32.318Z,75.15
2022-12-11T01:48:09.435Z,75.14
2022-12-11T01:50:46.084Z,75.08
2022-12-11T01:53:21.810Z,75.06
2022-12-11T01:55:56.806Z,75.18
2022-12-11T01:58:33.380Z,75.05
2022-12-11T02:01:05.922Z,75.04
2022-12-11T02:03:37.640Z,74.93
2022-12-11T02:06:37.675Z,74.96
2022-12-11T02:09:17.006Z,75.04
2022-12-11T02:12:02.582Z,74.96
2022-12-11T02:14:41.512Z,74.93
2022-12-11T02:17:18.358Z,74.92
2022-12-11T02:20:04.057Z,74.89
2022-12-11T02:22:55.455Z,74.99
2022-12-11T02:25:33.143Z,74.91
2022-12-11T02:28:18.496Z,74.96
2022-12-11T02:30:57.020Z,74.96
2022-12-11T02:33:35.124Z,75.01
2022-12-11T02:36:10.549Z,74.95
2022-12-11T02:38:46.848Z,74.93
2022-12-11T02:41:19.618Z,74.96
2022-12-11T02:43:52.940Z,75.00
2022-12-11T02:46:25.874Z,75.07
2022-12-11T02:48:59.121Z,74.87
2022-12-11T02:51:33.561Z,74.97
2022-12-11T02:54:08.855Z,74.99
2022-12-11T02:56:44.425Z,75.00
2022-12-11T02:59:21.403Z,74.95
2022-12-11T03:01:53.461Z,74.94
2022-12-11T03:04:26.907Z,74.92
2022-12-11T03:07:12.891Z,74.88
2022-12-11T03:09:47.054Z,74.80
2022-12-11T03:12:25.624Z,74.85
2022-12-11T03:14:59.200Z,74.73
2022-12-11T03:17:33.786Z,74.74
2022-12-11T03:20:18.674Z,74.78
2022-12-11T03:22:55.281Z,74.70
2022-12-11T03:25:33.664Z,74.85
2022-12-11T03:28:14.466Z,74.93
2022-12-11T03:30:47.515Z,74.67
2022-12-11T03:33:26.843Z,74.68
2022-12-11T03:36:02.231Z,74.76
2022-12-11T03:38:38.213Z,74.78
2022-12-11T03:41:13.183Z,74.70
2022-12-11T03:43:48.298Z,74.82
2022-12-11T03:46:23.104Z,74.72
2022-12-11T03:48:57.640Z,74.65
2022-12-11T03:51:30.015Z,74.74
2022-12-11T03:54:02.176Z,74.60
2022-12-11T03:56:36.932Z,74.63
2022-12-11T03:59:09.903Z,74.64
2022-12-11T04:01:43.504Z,74.61
2022-12-11T04:04:13.899Z,74.61
2022-12-11T04:06:45.580Z,74.62
2022-12-11T04:09:17.544Z,74.56
2022-12-11T04:11:51.549Z,74.46
2022-12-11T04:14:40.704Z,74.62
2022-12-11T04:17:12.744Z,74.79
2022-12-11T04:20:02.113Z,74.70
2022-12-11T04:22:51.672Z,74.65
2022-12-11T04:25:23.489Z,74.54
2022-12-11T04:27:55.033Z,74.62
2022-12-11T04:30:33.753Z,74.53
2022-12-11T04:33:06.787Z,74.61
2022-12-11T04:35:39.531Z,74.49
2022-12-11T04:38:11.314Z,74.44
2022-12-11T04:40:42.970Z,74.62
2022-12-11T04:43:14.589Z,74.59
2022-12-11T04:45:46.218Z,74.54
2022-12-11T04:48:17.996Z,74.60
2022-12-11T04:50:49.566Z,74.59
2022-12-11T04:53:21.112Z,74.46
2022-12-11T04:55:52.809Z,74.54
2022-12-11T04:58:24.852Z,74.54
2022-12-11T05:00:56.548Z,74.52
2022-12-11T05:03:28.144Z,74.45
2022-12-11T05:05:59.776Z,74.55
2022-12-11T05:08:31.423Z,74.38
2022-12-11T05:11:09.691Z,74.44
2022-12-11T05:13:41.922Z,74.43
2022-12-11T05:16:16.527Z,74.60
2022-12-11T05:18:48.548Z,74.52
2022-12-11T05:21:23.085Z,74.52
2022-12-11T05:23:54.631Z,74.50
2022-12-11T05:26:26.452Z,74.43
2022-12-11T05:28:58.620Z,74.49
2022-12-11T05:31:30.542Z,74.54
2022-12-11T05:34:04.469Z,74.43
2022-12-11T05:36:38.139Z,74.21
2022-12-11T05:39:14.480Z,74.44
2022-12-11T05:41:46.157Z,74.33
2022-12-11T05:44:19.117Z,74.49
2022-12-11T05:47:00.228Z,74.54
2022-12-11T05:49:31.992Z,74.43
2022-12-11T05:52:03.634Z,74.18
2022-12-11T05:54:35.187Z,74.26
2022-12-11T05:57:06.932Z,74.35
2022-12-11T05:59:38.452Z,74.23
2022-12-11T06:02:11.952Z,74.26
2022-12-11T06:04:42.089Z,74.25
2022-12-11T06:07:16.221Z,74.22
2022-12-11T06:09:47.786Z,74.32
2022-12-11T06:12:19.479Z,74.32
2022-12-11T06:14:51.033Z,74.39
2022-12-11T06:17:22.519Z,74.14
2022-12-11T06:19:56.791Z,74.26
2022-12-11T06:22:33.051Z,74.14
2022-12-11T06:25:05.204Z,74.07
2022-12-11T06:27:39.387Z,74.06
2022-12-11T06:30:14.516Z,73.94
2022-12-11T06:32:46.190Z,73.99
2022-12-11T06:35:19.847Z,73.89
2022-12-11T06:37:51.555Z,73.89
2022-12-11T06:40:24.755Z,73.96
2022-12-11T06:42:56.553Z,74.04
2022-12-11T06:45:28.211Z,73.97
2022-12-11T06:48:00.669Z,74.08
2022-12-11T06:50:34.671Z,73.91
2022-12-11T06:53:07.511Z,73.88
2022-12-11T06:55:42.073Z,74.02
2022-12-11T06:58:13.649Z,74.03
2022-12-11T07:00:45.491Z,74.10
2022-12-11T07:03:17.265Z,74.02
2022-12-11T07:05:48.851Z,73.80
2022-12-11T07:08:20.458Z,74.05
2022-12-11T07:10:55.638Z,73.96
2022-12-11T07:13:27.331Z,73.89
2022-12-11T07:16:04.424Z,73.79
2022-12-11T07:18:39.149Z,73.88
2022-12-11T07:21:12.533Z,73.91
2022-12-11T07:23:44.650Z,73.81
2022-12-11T07:26:19.669Z,73.73
2022-12-11T07:28:49.911Z,73.81
2022-12-11T07:31:24.842Z,73.73
2022-12-11T07:33:58.303Z,73.58
2022-12-11T07:36:30.624Z,73.70
2022-12-11T07:39:03.106Z,73.70
2022-12-11T07:41:34.842Z,73.70
2022-12-11T07:44:06.860Z,73.60
2022-12-11T07:46:38.716Z,73.69
2022-12-11T07:49:10.242Z,73.42
2022-12-11T07:51:43.359Z,73.52
2022-12-11T07:54:17.524Z,73.60
2022-12-11T07:56:53.741Z,73.56
2022-12-11T07:59:25.871Z,73.53
2022-12-11T08:01:57.382Z,73.64
2022-12-11T08:04:28.997Z,73.52
2022-12-11T08:07:01.079Z,73.48
2022-12-11T08:09:32.739Z,73.43
2022-12-11T08:12:04.538Z,73.43
2022-12-11T08:14:36.401Z,73.37
2022-12-11T08:17:07.980Z,73.21
2022-12-11T08:19:39.581Z,73.08
2022-12-11T08:22:11.600Z,73.16
2022-12-11T08:24:43.178Z,72.99
2022-12-11T08:27:14.761Z,73.05
2022-12-11T08:29:47.802Z,73.06
2022-12-11T08:32:19.773Z,72.85
2022-12-11T08:34:53.624Z,72.82
2022-12-11T08:37:25.335Z,72.82
2022-12-11T08:39:56.910Z,72.76
2022-12-11T08:42:28.521Z,72.84
2022-12-11T08:45:00.025Z,72.73
2022-12-11T08:47:33.706Z,72.85
2022-12-11T08:50:05.985Z,72.61
2022-12-11T08:52:38.336Z,72.70
2022-12-11T08:55:11.554Z,72.64
2022-12-11T08:57:43.532Z,72.61
2022-12-11T09:00:17.129Z,72.59
2022-12-11T09:02:47.103Z,72.42
2022-12-11T09:05:19.089Z,72.45
2022-12-11T09:07:50.664Z,72.48
2022-12-11T09:10:22.639Z,72.58
2022-12-11T09:12:54.312Z,72.37
2022-12-11T09:15:25.995Z,72.42
2022-12-11T09:17:57.669Z,72.50
2022-12-11T09:20:29.242Z,72.48
2022-12-11T09:23:00.846Z,72.25
2022-12-11T09:25:32.729Z,72.00
2022-12-11T09:28:04.297Z,71.89
2022-12-11T09:30:35.925Z,71.92
2022-12-11T09:33:07.735Z,71.91
2022-12-11T09:35:39.475Z,71.71
2022-12-11T09:38:11.575Z,71.78
2022-12-11T09:40:46.133Z,71.81
2022-12-11T09:43:32.322Z,71.71
2022-12-11T09:46:07.114Z,71.58
2022-12-11T09:48:40.871Z,71.59
2022-12-11T09:51:20.294Z,71.57
2022-12-11T09:53:52.706Z,71.40
2022-12-11T09:56:29.051Z,71.12
2022-12-11T09:59:09.716Z,71.45
2022-12-11T10:01:51.134Z,71.18
2022-12-11T10:04:40.649Z,71.36
2022-12-11T10:07:17.877Z,71.26
2022-12-11T10:09:57.796Z,71.31
2022-12-11T10:12:40.073Z,71.32
2022-12-11T10:15:34.834Z,71.06
2022-12-11T10:18:18.309Z,70.87
2022-12-11T10:20:54.211Z,71.04
2022-12-11T10:23:30.377Z,70.90
2022-12-11T10:26:07.894Z,70.77
2022-12-11T10:28:39.489Z,70.77
2022-12-11T10:31:19.100Z,70.67
2022-12-11T10:34:01.047Z,70.46
2022-12-11T10:36:36.518Z,70.25
2022-12-11T10:39:15.923Z,70.10
2022-12-11T10:41:50.067Z,70.41
2022-12-11T10:44:23.486Z,70.16
2022-12-11T10:47:08.383Z,70.03
2022-12-11T10:49:44.272Z,69.97
2022-12-11T10:52:24.345Z,69.95
2022-12-11T10:55:03.323Z,70.18
2022-12-11T10:57:40.209Z,70.00
2022-12-11T11:00:44.804Z,70.05
2022-12-11T11:03:28.611Z,70.29
2022-12-11T11:06:08.721Z,70.09
2022-12-11T11:08:44.148Z,70.08
2022-12-11T11:11:29.168Z,69.87
2022-12-11T11:14:16.953Z,69.90
2022-12-11T11:16:50.681Z,69.62
2022-12-11T11:19:25.488Z,69.56
2022-12-11T11:22:00.480Z,69.51
2022-12-11T11:24:36.548Z,69.70
2022-12-11T11:27:26.221Z,69.79
2022-12-11T11:30:01.147Z,69.68
2022-12-11T11:32:35.770Z,69.63
2022-12-11T11:35:21.466Z,69.33
2022-12-11T11:38:03.353Z,69.21
2022-12-11T11:40:43.232Z,69.14
2022-12-11T11:43:22.755Z,69.14
2022-12-11T11:46:00.709Z,69.13
2022-12-11T11:48:41.403Z,68.84
2022-12-11T11:51:22.664Z,68.89
2022-12-11T11:53:56.485Z,68.92
2022-12-11T11:56:31.493Z,68.59
2022-12-11T11:59:13.437Z,68.78
2022-12-11T12:01:46.029Z,68.87
2022-12-11T12:04:17.724Z,68.62
2022-12-11T12:07:08.039Z,68.53
2022-12-11T12:09:54.049Z,68.71
2022-12-11T12:12:35.396Z,68.73
2022-12-11T12:15:21.915Z,68.76
2022-12-11T12:17:57.456Z,68.77
2022-12-11T12:20:37.853Z,68.72
2022-12-11T12:23:25.053Z,68.73
2022-12-11T12:26:02.967Z,68.80
2022-12-11T12:28:46.157Z,68.82
2022-12-11T12:31:33.445Z,68.77
2022-12-11T12:34:17.505Z,68.87
2022-12-11T12:36:59.417Z,68.86
2022-12-11T12:39:41.653Z,68.71
2022-12-11T12:42:23.338Z,68.85
2022-12-11T12:45:05.056Z,68.68
2022-12-11T12:47:38.005Z,68.68
2022-12-11T12:50:16.032Z,68.75
2022-12-11T12:52:49.902Z,68.90
2022-12-11T12:55:25.924Z,68.78
2022-12-11T12:58:01.335Z,68.77
2022-12-11T13:00:36.662Z,68.88
2022-12-11T13:03:17.285Z,68.78
2022-12-11T13:05:59.142Z,68.95
2022-12-11T13:08:32.648Z,68.98
2022-12-11T13:11:07.528Z,69.19
2022-12-11T13:13:41.696Z,69.22
2022-12-11T13:16:29.178Z,69.26
2022-12-11T13:19:00.940Z,69.09
2022-12-11T13:21:35.187Z,69.30
2022-12-11T13:24:28.171Z,69.22
2022-12-11T13:27:11.467Z,69.23
2022-12-11T13:29:43.854Z,69.55
2022-12-11T13:32:25.738Z,69.49
2022-12-11T13:35:00.184Z,69.51
2022-12-11T13:37:35.292Z,69.40
2022-12-11T13:40:16.013Z,69.46
2022-12-11T13:42:55.588Z,69.64
2022-12-11T13:45:30.898Z,69.27
2022-12-11T13:48:02.829Z,69.48
2022-12-11T13:50:37.802Z,69.36
2022-12-11T13:53:25.955Z,69.37
2022-12-11T13:56:01.637Z,69.37
2022-12-11T13:58:39.225Z,69.39
2022-12-11T14:01:13.717Z,69.55
2022-12-11T14:03:54.574Z,69.48
2022-12-11T14:06:28.448Z,69.50
2022-12-11T14:09:03.040Z,69.59
2022-12-11T14:11:39.606Z,69.54
2022-12-11T14:14:21.219Z,69.63
2022-12-11T14:16:54.277Z,69.47
2022-12-11T14:19:26.487Z,69.68
2022-12-11T14:22:05.450Z,69.70
2022-12-11T14:24:36.979Z,69.61
2022-12-11T14:27:17.771Z,69.52
2022-12-11T14:29:50.285Z,69.56
2022-12-11T14:32:31.074Z,69.52
2022-12-11T14:35:05.646Z,69.66
2022-12-11T14:37:38.352Z,69.84
2022-12-11T14:40:17.090Z,69.68
2022-12-11T14:42:59.899Z,69.86
2022-12-11T14:45:37.955Z,69.74
2022-12-11T14:48:14.506Z,69.89
2022-12-11T14:50:50.309Z,70.01
2022-12-11T14:53:26.441Z,70.17
2022-12-11T14:56:06.784Z,69.98
2022-12-11T14:58:46.674Z,69.94
2022-12-11T15:01:27.528Z,69.98
2022-12-11T15:04:20.901Z,70.06
2022-12-11T15:06:53.678Z,70.16
2022-12-11T15:09:29.500Z,70.21
2022-12-11T15:12:10.749Z,70.13
2022-12-11T15:14:50.186Z,69.96
2022-12-11T15:17:22.766Z,70.10
2022-12-11T15:19:57.256Z,70.06
2022-12-11T15:22:32.235Z,70.28
2022-12-11T15:25:05.933Z,70.16
2022-12-11T15:27:39.706Z,70.21
2022-12-11T15:30:31.825Z,70.25
2022-12-11T15:33:22.161Z,70.13
2022-12-11T15:36:00.378Z,70.28
2022-12-11T15:38:35.056Z,70.31
2022-12-11T15:41:07.465Z,70.22
2022-12-11T15:43:40.277Z,70.37
2022-12-11T15:46:11.999Z,70.50
2022-12-11T15:48:43.831Z,70.41
2022-12-11T15:51:15.416Z,70.34
2022-12-11T15:53:46.905Z,70.48
2022-12-11T15:56:19.199Z,70.31
2022-12-11T15:58:51.698Z,70.33
2022-12-11T16:01:23.268Z,70.42
2022-12-11T16:03:54.841Z,70.42
2022-12-11T16:06:26.472Z,70.30
2022-12-11T16:08:58.014Z,70.36
2022-12-11T16:11:29.592Z,70.12
2022-12-11T16:14:04.328Z,70.37
2022-12-11T16:16:36.087Z,70.17
2022-12-11T16:19:07.682Z,70.44
2022-12-11T16:21:39.170Z,70.11
2022-12-11T16:24:11.179Z,70.16
2022-12-11T16:26:42.704Z,70.11
2022-12-11T16:29:14.256Z,70.19
2022-12-11T16:31:45.901Z,70.26
2022-12-11T16:34:17.453Z,70.32
2022-12-11T16:36:49.056Z,70.31
2022-12-11T16:39:20.538Z,70.29
2022-12-11T16:41:52.063Z,70.25
2022-12-11T16:44:26.022Z,70.33
2022-12-11T16:46:58.896Z,70.45
2022-12-11T16:49:32.169Z,70.34
2022-12-11T16:52:03.732Z,70.44
2022-12-11T16:54:35.217Z,70.61
2022-12-11T16:57:07.019Z,70.62
2022-12-11T16:59:38.829Z,70.57
2022-12-11T17:02:10.913Z,70.65
2022-12-11T17:04:43.348Z,70.42
2022-12-11T17:07:15.734Z,70.34
2022-12-11T17:09:47.277Z,70.62
2022-12-11T17:12:18.965Z,70.69
2022-12-11T17:14:50.612Z,70.48
2022-12-11T17:17:22.533Z,70.69
2022-12-11T17:19:54.273Z,70.46
2022-12-11T17:22:26.283Z,70.60
2022-12-11T17:24:57.815Z,70.70
2022-12-11T17:27:29.517Z,70.64
2022-12-11T17:30:01.043Z,70.53
2022-12-11T17:32:32.601Z,70.60
2022-12-11T17:35:04.278Z,70.58
2022-12-11T17:37:35.935Z,70.65
2022-12-11T17:40:09.638Z,70.66
2022-12-11T17:42:43.099Z,70.68
2022-12-11T17:45:13.589Z,70.62
2022-12-11T17:47:45.613Z,70.55
2022-12-11T17:50:17.576Z,70.77
2022-12-11T17:52:49.223Z,70.79
2022-12-11T17:55:21.077Z,71.08
2022-12-11T17:57:52.857Z,70.91
2022-12-11T18:00:25.403Z,70.93
2022-12-11T18:02:59.035Z,70.97
2022-12-11T18:05:31.049Z,71.00
2022-12-11T18:08:03.719Z,70.93
2022-12-11T18:10:38.393Z,71.14
2022-12-11T18:13:10.221Z,71.17
2022-12-11T18:15:42.594Z,71.30
2022-12-11T18:18:14.423Z,71.22
2022-12-11T18:20:49.062Z,71.19
2022-12-11T18:23:20.877Z,71.08
2022-12-11T18:25:52.737Z,71.24
2022-12-11T18:28:24.458Z,71.02
2022-12-11T18:30:56.057Z,71.19
2022-12-11T18:33:27.974Z,71.16
2022-12-11T18:35:59.524Z,71.19
2022-12-11T18:38:31.355Z,71.12
2022-12-11T18:41:05.018Z,71.36
2022-12-11T18:43:37.127Z,71.13
2022-12-11T18:46:10.253Z,71.32
2022-12-11T18:48:42.235Z,71.25
2022-12-11T18:51:17.315Z,71.27
2022-12-11T18:53:48.927Z,71.32
2022-12-11T18:56:22.201Z,71.17
2022-12-11T18:58:56.948Z,71.41
2022-12-11T19:01:30.082Z,71.21
2022-12-11T19:04:06.659Z,71.42
2022-12-11T19:06:42.129Z,71.32
2022-12-11T19:09:15.521Z,71.12
2022-12-11T19:11:47.592Z,71.12
2022-12-11T19:14:19.271Z,71.31
2022-12-11T19:16:51.074Z,71.23
2022-12-11T19:19:23.902Z,71.34
2022-12-11T19:21:55.664Z,71.13
2022-12-11T19:24:27.526Z,71.13
2022-12-11T19:26:59.286Z,71.17
2022-12-11T19:29:33.341Z,71.04
2022-12-11T19:32:06.011Z,71.22
2022-12-11T19:34:38.472Z,71.05
2022-12-11T19:37:10.032Z,70.98
2022-12-11T19:39:42.415Z,71.07
2022-12-11T19:42:14.158Z,71.04
2022-12-11T19:44:46.049Z,71.14
2022-12-11T19:47:17.731Z,71.16
2022-12-11T19:49:51.343Z,71.06
2022-12-11T19:52:22.869Z,71.24
2022-12-11T19:54:54.497Z,71.14
2022-12-11T19:57:26.207Z,71.13
2022-12-11T19:59:57.849Z,71.16
2022-12-11T20:02:29.641Z,71.13
2022-12-11T20:05:01.418Z,70.96
2022-12-11T20:07:33.012Z,70.90
2022-12-11T20:10:05.092Z,71.03
2022-12-11T20:12:36.736Z,71.00
2022-12-11T20:15:10.109Z,70.75
2022-12-11T20:17:44.723Z,71.06
2022-12-11T20:20:16.415Z,70.88
2022-12-11T20:22:48.071Z,70.76
2022-12-11T20:25:20.031Z,70.93
2022-12-11T20:27:52.095Z,71.09
2022-12-11T20:30:24.698Z,70.97
2022-12-11T20:32:56.221Z,71.03
2022-12-11T20:35:27.860Z,70.94
2022-12-11T20:37:59.392Z,70.97
2022-12-11T20:40:32.129Z,70.80
2022-12-11T20:43:03.699Z,70.95
2022-12-11T20:45:35.391Z,70.94
2022-12-11T20:48:07.752Z,70.84
2022-12-11T20:50:39.320Z,70.92
2022-12-11T20:53:11.092Z,71.17
2022-12-11T20:55:44.145Z,70.98
2022-12-11T20:58:15.760Z,70.94
2022-12-11T21:00:48.090Z,71.14
2022-12-11T21:03:19.754Z,70.86
2022-12-11T21:05:51.244Z,70.93
2022-12-11T21:08:22.907Z,70.92
2022-12-11T21:10:54.565Z,70.94
2022-12-11T21:13:26.143Z,71.32
2022-12-11T21:15:57.797Z,71.26
2022-12-11T21:18:29.459Z,71.03
2022-12-11T21:21:00.972Z,70.81
2022-12-11T21:23:32.727Z,70.99
2022-12-11T21:26:04.679Z,70.88
2022-12-11T21:28:36.327Z,71.07
2022-12-11T21:31:10.717Z,70.96
2022-12-11T21:33:42.490Z,71.03
2022-12-11T21:36:16.128Z,70.91
2022-12-11T21:38:48.094Z,71.07
2022-12-11T21:41:22.160Z,71.08
2022-12-11T21:45:14.472Z,71.17
2022-12-11T21:46:46.212Z,71.18
2022-12-11T21:49:17.784Z,71.21
2022-12-11T21:51:49.668Z,71.22
2022-12-11T21:54:21.518Z,71.31
2022-12-11T21:56:54.195Z,71.46
2022-12-11T21:59:25.700Z,71.28
2022-12-11T22:01:57.414Z,71.34
2022-12-11T22:04:29.025Z,71.19
2022-12-11T22:07:00.522Z,71.36
2022-12-11T22:09:32.077Z,71.37
2022-12-11T22:12:03.604Z,71.38
2022-12-11T22:14:36.347Z,71.39
2022-12-11T22:17:07.857Z,71.46
2022-12-11T22:19:39.393Z,71.35
2022-12-11T22:22:10.904Z,71.45
2022-12-11T22:24:42.716Z,71.36
2022-12-11T22:27:16.817Z,71.36
2022-12-11T22:29:52.065Z,71.35
2022-12-11T22:32:23.564Z,71.28
2022-12-11T22:34:56.339Z,71.49
2022-12-11T22:37:29.117Z,71.32
2022-12-11T22:40:01.147Z,71.23
2022-12-11T22:42:33.085Z,71.17
2022-12-11T22:45:05.436Z,71.46
2022-12-11T22:47:37.778Z,71.65
2022-12-11T22:50:11.711Z,71.59
2022-12-11T22:52:44.768Z,71.59
2022-12-11T22:55:16.845Z,71.46
2022-12-11T22:57:48.391Z,71.47
2022-12-11T23:00:21.015Z,71.62
2022-12-11T23:02:52.790Z,71.65
2022-12-11T23:05:24.494Z,71.60
2022-12-11T23:07:56.095Z,71.74
2022-12-11T23:10:28.050Z,71.79
2022-12-11T23:12:59.548Z,71.85
2022-12-11T23:15:31.272Z,71.88
2022-12-11T23:18:03.179Z,71.81
2022-12-11T23:20:34.723Z,71.98
2022-12-11T23:23:06.263Z,71.87
2022-12-11T23:25:37.814Z,71.72
2022-12-11T23:28:09.557Z,71.79
2022-12-11T23:30:59.633Z,71.78
2022-12-11T23:33:31.373Z,71.89
2022-12-11T23:36:03.196Z,71.94
2022-12-11T23:38:35.712Z,72.06
2022-12-11T23:41:08.846Z,71.71
2022-12-11T23:43:40.992Z,72.00
2022-12-11T23:46:14.985Z,71.91
2022-12-11T23:48:47.684Z,72.04
2022-12-11T23:51:21.431Z,71.97
2022-12-11T23:53:53.379Z,72.22
2022-12-11T23:56:27.681Z,72.00
2022-12-11T23:58:59.432Z,71.86
